Flight Track Log - Related Links

Times and Time Zones

All times are in EDT time to prevent confusion due to time zone crossing. See the PDT4226 flight status page for this flight to view local times or setup timezone preferences in your user account.

Time Position Orientation Groundspeed Altitude Reporting Facility
EDT Latitude Longitude Course Direction KTS MPH feet Rate Location/Type
Sun 02:27:19 PM 39.8667 -75.2667 293° West 109 125 700  Level Philadelphia TRACON
Sun 02:28:19 PM 39.8833 -75.3167 293° West 156 180 1,600 810 Climbing Philadelphia TRACON
Sun 02:29:25 PM 39.9000 -75.3833 288° West 175 201 2,400 714 Climbing Philadelphia TRACON
Sun 02:30:25 PM 39.9167 -75.4333 294° West 173 199 3,100 684 Climbing Philadelphia TRACON
Sun 02:31:19 PM 39.9333 -75.4833 294° West 175 201 3,700 716 Climbing Philadelphia TRACON
Sun 02:32:14 PM 39.9500 -75.5333 294° West 178 205 4,400 678 Climbing Philadelphia TRACON
Sun 02:33:14 PM 39.9833 -75.5833 311° West 185 213 5,000 286 Climbing Philadelphia TRACON
Sun 02:34:20 PM 40.0333 -75.5667 14° North 211 243 5,000  Level Philadelphia TRACON
Sun 02:35:25 PM 40.1000 -75.5667 360° North 202 232 5,000  Level Philadelphia TRACON
Sun 02:36:25 PM 40.1500 -75.5333 27° Northeast 207 238 5,000 104 Level Philadelphia TRACON
Sun 02:37:20 PM 40.2000 -75.5333 360° North 205 236 5,200 470 Climbing Philadelphia TRACON
Sun 02:38:20 PM 40.2500 -75.5167 14° North 188 216 5,900 240 Climbing Philadelphia TRACON
Sun 02:40:00 PM 40.3511 -75.5289 11° North  Level FlightAware Approximate
Sun 02:40:40 PM 40.3814 -75.5008 11° North 249 287 6,000  Level New York Center
Sun 02:41:40 PM 40.4336 -75.4936 North 219 252 6,000 350 Level New York Center
Sun 02:42:40 PM 40.4881 -75.4919 North 193 222 6,700 700 Climbing New York Center
Sun 02:44:00 PM 40.5659 -75.4713 11° North  Level FlightAware Approximate
Sun 02:51:00 PM 40.9820 -75.4500 North  Level FlightAware Approximate
Sun 02:52:00 PM 41.0416 -75.4506 357° North  Level FlightAware Approximate
Sun 02:53:00 PM 41.1011 -75.4552 357° North  Level FlightAware Approximate
Sun 02:54:00 PM 41.1605 -75.4598 357° North  Level FlightAware Approximate
Sun 02:55:00 PM 41.2200 -75.4643 357° North  Level FlightAware Approximate
Sun 02:56:00 PM 41.2796 -75.4667 North  Level FlightAware Approximate
Sun 02:57:00 PM 41.3391 -75.4667 North  Level FlightAware Approximate
Sun 02:58:00 PM 41.3987 -75.4667 North  Level FlightAware Approximate
Sun 02:59:00 PM 41.4583 -75.4667 North  Level FlightAware Approximate
Sun 03:00:00 PM 41.5077 -75.5076 323° Northwest  Level FlightAware Approximate
Sun 03:01:00 PM 41.5554 -75.5552 323° Northwest  Level FlightAware Approximate
Sun 03:02:00 PM 41.6031 -75.6029 323° Northwest  Level FlightAware Approximate
Sun 03:03:00 PM 41.6508 -75.6507 323° Northwest  Level FlightAware Approximate
Sun 03:04:00 PM 41.6985 -75.6985 323° Northwest  Level FlightAware Approximate
Sun 03:05:00 PM 41.7510 -75.7348 339° North  Level FlightAware Approximate
Sun 03:06:00 PM 41.8065 -75.7641 339° North  Level FlightAware Approximate
Sun 03:07:00 PM 41.8619 -75.7934 338° Northwest  Level FlightAware Approximate
Sun 03:08:00 PM 41.9173 -75.8227 338° Northwest  Level FlightAware Approximate
Sun 03:09:00 PM 41.9727 -75.8522 338° Northwest  Level FlightAware Approximate
Sun 03:10:00 PM 42.0284 -75.8808 340° North  Level FlightAware Approximate
Sun 03:11:00 PM 42.0855 -75.9022 323° Northwest  Level FlightAware Approximate
Sun 03:12:00 PM 42.1384 -75.9330 331° Northwest  Level FlightAware Approximate
Sun 03:13:00 PM 42.1915 -75.9667 North  Level FlightAware Approximate
Sun 03:14:00 PM 42.2000 -75.9667 North  Level FlightAware Approximate
Sun 03:15:00 PM 42.2084 -75.9796 North  Level Estimated
Sun 03:16:00 PM 42.2084 -75.9796 North  Level Estimated
Sun 03:17:00 PM 42.2084 -75.9796 North  Level Estimated
Sun 03:18:00 PM 42.2084 -75.9796 North  Level Estimated

Login

Don't have an account? Register now (free) for customized features, flight alerts, and more!